Terminal Aerodrome Forecast
Issued by NWS

Current Version | Previous Version | Graphics & Text | Print | Product List | Glossary On
Versions: 1 2 3 4 5 6 7 8 9 10 11 12 13 14 15 16 17 18 19 20 21 22 23 24 25 26 27
179
FTUS41 KRLX 261740
TAFCKB
TAF
KCKB 261740Z 2618/2718 25011G19KT 5SM SHRA VCTS BKN035CB
     FM261900 25008KT 3SM TSRA BR BKN023CB
      TEMPO 2619/2622 27015G35KT 3/4SM +TSRA BR OVC020CB
     FM270000 31004KT 5SM -SHRA BR BKN020
     FM270700 VRB03KT 2SM -DZ BR OVC008
     FM271000 01004KT 3SM BR OVC005
     FM271300 01004KT 5SM BR OVC012=

USA.gov is the U.S. government's official web portal to all federal, state and local government web resources and services.